sensor_id;sensor_type;location;lat;lon;timestamp;P1;durP1;ratioP1;P2;durP2;ratioP2
26113;SDS011;13966;48.828;9.064;2023-03-01T00:00:40;33.13;;;19.25;;
26113;SDS011;13966;48.828;9.064;2023-03-01T00:03:06;32.45;;;19.23;;
26113;SDS011;13966;48.828;9.064;2023-03-01T00:05:32;33.35;;;18.77;;
26113;SDS011;13966;48.828;9.064;2023-03-01T00:07:58;36.22;;;20.05;;
26113;SDS011;13966;48.828;9.064;2023-03-01T00:10:24;32.53;;;19.33;;
26113;SDS011;13966;48.828;9.064;2023-03-01T00:12:51;36.38;;;19.13;;
26113;SDS011;13966;48.828;9.064;2023-03-01T00:15:17;40.78;;;20.85;;
26113;SDS011;13966;48.828;9.064;2023-03-01T00:17:43;34.78;;;20.88;;
26113;SDS011;13966;48.828;9.064;2023-03-01T00:20:10;30.77;;;19.35;;
26113;SDS011;13966;48.828;9.064;2023-03-01T00:22:36;38.13;;;20.42;;
26113;SDS011;13966;48.828;9.064;2023-03-01T00:25:03;35.60;;;20.58;;
26113;SDS011;13966;48.828;9.064;2023-03-01T00:27:29;34.47;;;20.13;;
26113;SDS011;13966;48.828;9.064;2023-03-01T00:29:55;34.97;;;19.52;;
26113;SDS011;13966;48.828;9.064;2023-03-01T00:32:21;40.03;;;19.77;;
26113;SDS011;13966;48.828;9.064;2023-03-01T00:34:47;35.55;;;20.42;;
26113;SDS011;13966;48.828;9.064;2023-03-01T00:37:20;35.47;;;20.88;;
26113;SDS011;13966;48.828;9.064;2023-03-01T00:39:46;36.45;;;20.40;;
26113;SDS011;13966;48.828;9.064;2023-03-01T00:42:12;34.47;;;19.65;;
26113;SDS011;13966;48.828;9.064;2023-03-01T00:44:38;37.60;;;20.67;;
26113;SDS011;13966;48.828;9.064;2023-03-01T00:47:04;35.60;;;20.05;;
26113;SDS011;13966;48.828;9.064;2023-03-01T00:49:30;32.78;;;19.02;;
26113;SDS011;13966;48.828;9.064;2023-03-01T00:51:56;30.85;;;18.55;;
26113;SDS011;13966;48.828;9.064;2023-03-01T00:54:22;35.08;;;20.83;;
26113;SDS011;13966;48.828;9.064;2023-03-01T00:56:48;33.58;;;19.42;;
26113;SDS011;13966;48.828;9.064;2023-03-01T00:59:14;35.03;;;18.73;;
26113;SDS011;13966;48.828;9.064;2023-03-01T01:01:40;31.70;;;19.25;;
26113;SDS011;13966;48.828;9.064;2023-03-01T01:04:07;33.20;;;19.20;;
26113;SDS011;13966;48.828;9.064;2023-03-01T01:06:35;31.00;;;18.42;;
26113;SDS011;13966;48.828;9.064;2023-03-01T01:09:01;36.03;;;19.58;;
26113;SDS011;13966;48.828;9.064;2023-03-01T01:11:28;35.60;;;18.70;;
26113;SDS011;13966;48.828;9.064;2023-03-01T01:13:54;34.92;;;18.25;;
26113;SDS011;13966;48.828;9.064;2023-03-01T01:16:22;32.35;;;17.95;;
26113;SDS011;13966;48.828;9.064;2023-03-01T01:18:48;29.55;;;17.63;;
26113;SDS011;13966;48.828;9.064;2023-03-01T01:21:15;30.85;;;17.98;;
26113;SDS011;13966;48.828;9.064;2023-03-01T01:23:42;28.77;;;18.50;;
26113;SDS011;13966;48.828;9.064;2023-03-01T01:26:12;33.00;;;18.55;;
26113;SDS011;13966;48.828;9.064;2023-03-01T01:28:39;33.60;;;18.55;;
26113;SDS011;13966;48.828;9.064;2023-03-01T01:31:05;32.55;;;19.38;;
26113;SDS011;13966;48.828;9.064;2023-03-01T01:33:31;29.92;;;17.20;;
26113;SDS011;13966;48.828;9.064;2023-03-01T01:35:57;31.67;;;18.08;;
26113;SDS011;13966;48.828;9.064;2023-03-01T01:38:23;31.48;;;18.13;;
26113;SDS011;13966;48.828;9.064;2023-03-01T01:40:50;33.47;;;18.42;;
26113;SDS011;13966;48.828;9.064;2023-03-01T01:45:48;31.13;;;19.05;;
26113;SDS011;13966;48.828;9.064;2023-03-01T01:48:21;31.95;;;18.65;;
26113;SDS011;13966;48.828;9.064;2023-03-01T01:50:55;36.58;;;20.02;;
26113;SDS011;13966;48.828;9.064;2023-03-01T01:53:22;29.13;;;18.40;;
26113;SDS011;13966;48.828;9.064;2023-03-01T01:55:55;32.40;;;18.63;;
26113;SDS011;13966;48.828;9.064;2023-03-01T01:58:22;32.55;;;18.80;;
26113;SDS011;13966;48.828;9.064;2023-03-01T02:00:50;33.92;;;18.90;;
26113;SDS011;13966;48.828;9.064;2023-03-01T02:03:20;35.03;;;19.35;;
26113;SDS011;13966;48.828;9.064;2023-03-01T02:08:18;35.78;;;19.00;;
26113;SDS011;13966;48.828;9.064;2023-03-01T02:10:45;35.92;;;20.55;;
26113;SDS011;13966;48.828;9.064;2023-03-01T02:13:12;45.53;;;21.92;;
26113;SDS011;13966;48.828;9.064;2023-03-01T02:15:39;40.92;;;21.42;;
26113;SDS011;13966;48.828;9.064;2023-03-01T02:18:06;39.45;;;20.50;;
26113;SDS011;13966;48.828;9.064;2023-03-01T02:20:39;44.92;;;21.80;;
26113;SDS011;13966;48.828;9.064;2023-03-01T02:23:06;45.38;;;22.40;;
26113;SDS011;13966;48.828;9.064;2023-03-01T02:28:37;43.17;;;22.58;;
26113;SDS011;13966;48.828;9.064;2023-03-01T02:31:05;46.22;;;22.65;;
26113;SDS011;13966;48.828;9.064;2023-03-01T02:33:50;44.85;;;21.05;;
26113;SDS011;13966;48.828;9.064;2023-03-01T02:36:17;35.15;;;21.35;;
26113;SDS011;13966;48.828;9.064;2023-03-01T02:38:44;36.58;;;20.63;;
26113;SDS011;13966;48.828;9.064;2023-03-01T02:41:11;34.35;;;20.92;;
26113;SDS011;13966;48.828;9.064;2023-03-01T02:43:39;35.17;;;20.23;;
26113;SDS011;13966;48.828;9.064;2023-03-01T02:46:06;33.63;;;18.67;;
26113;SDS011;13966;48.828;9.064;2023-03-01T02:48:40;33.85;;;19.48;;
26113;SDS011;13966;48.828;9.064;2023-03-01T02:53:41;37.42;;;21.27;;
26113;SDS011;13966;48.828;9.064;2023-03-01T02:56:09;39.47;;;20.25;;
26113;SDS011;13966;48.828;9.064;2023-03-01T02:58:38;40.00;;;20.20;;
26113;SDS011;13966;48.828;9.064;2023-03-01T03:01:10;33.72;;;19.30;;
26113;SDS011;13966;48.828;9.064;2023-03-01T03:03:36;35.33;;;19.38;;
26113;SDS011;13966;48.828;9.064;2023-03-01T03:06:02;31.35;;;18.55;;
26113;SDS011;13966;48.828;9.064;2023-03-01T03:08:28;33.55;;;19.58;;
26113;SDS011;13966;48.828;9.064;2023-03-01T03:10:54;30.63;;;18.45;;
26113;SDS011;13966;48.828;9.064;2023-03-01T03:13:20;29.52;;;17.48;;
26113;SDS011;13966;48.828;9.064;2023-03-01T03:15:47;33.38;;;18.50;;
26113;SDS011;13966;48.828;9.064;2023-03-01T03:18:14;33.17;;;18.73;;
26113;SDS011;13966;48.828;9.064;2023-03-01T03:20:41;34.03;;;19.88;;
26113;SDS011;13966;48.828;9.064;2023-03-01T03:23:08;30.77;;;19.40;;
26113;SDS011;13966;48.828;9.064;2023-03-01T03:25:34;33.78;;;20.00;;
26113;SDS011;13966;48.828;9.064;2023-03-01T03:28:03;33.08;;;19.17;;
26113;SDS011;13966;48.828;9.064;2023-03-01T03:30:34;32.72;;;19.13;;
26113;SDS011;13966;48.828;9.064;2023-03-01T03:33:00;35.35;;;19.58;;
26113;SDS011;13966;48.828;9.064;2023-03-01T03:35:28;28.08;;;17.45;;
26113;SDS011;13966;48.828;9.064;2023-03-01T03:37:58;35.65;;;18.75;;
26113;SDS011;13966;48.828;9.064;2023-03-01T03:40:32;31.20;;;17.93;;
26113;SDS011;13966;48.828;9.064;2023-03-01T03:42:59;34.20;;;19.15;;
26113;SDS011;13966;48.828;9.064;2023-03-01T03:45:25;30.58;;;18.25;;
26113;SDS011;13966;48.828;9.064;2023-03-01T03:47:51;30.67;;;18.33;;
26113;SDS011;13966;48.828;9.064;2023-03-01T03:50:17;30.73;;;17.33;;
26113;SDS011;13966;48.828;9.064;2023-03-01T03:52:43;31.13;;;18.73;;
26113;SDS011;13966;48.828;9.064;2023-03-01T03:55:10;34.22;;;18.70;;
26113;SDS011;13966;48.828;9.064;2023-03-01T03:57:40;33.00;;;18.00;;
26113;SDS011;13966;48.828;9.064;2023-03-01T04:00:09;31.15;;;18.23;;
26113;SDS011;13966;48.828;9.064;2023-03-01T04:02:39;31.50;;;18.58;;
26113;SDS011;13966;48.828;9.064;2023-03-01T04:05:05;36.78;;;18.73;;
26113;SDS011;13966;48.828;9.064;2023-03-01T04:07:32;34.10;;;18.00;;
26113;SDS011;13966;48.828;9.064;2023-03-01T04:09:58;31.33;;;17.90;;
26113;SDS011;13966;48.828;9.064;2023-03-01T04:12:24;28.40;;;16.83;;
26113;SDS011;13966;48.828;9.064;2023-03-01T04:14:50;29.63;;;17.73;;
26113;SDS011;13966;48.828;9.064;2023-03-01T04:17:17;27.98;;;17.25;;
26113;SDS011;13966;48.828;9.064;2023-03-01T04:19:43;28.50;;;17.80;;
26113;SDS011;13966;48.828;9.064;2023-03-01T04:22:13;30.30;;;17.90;;
26113;SDS011;13966;48.828;9.064;2023-03-01T04:24:43;29.63;;;17.45;;
26113;SDS011;13966;48.828;9.064;2023-03-01T04:27:09;30.50;;;17.38;;
26113;SDS011;13966;48.828;9.064;2023-03-01T04:29:35;29.55;;;18.30;;
26113;SDS011;13966;48.828;9.064;2023-03-01T04:32:01;35.42;;;19.30;;
26113;SDS011;13966;48.828;9.064;2023-03-01T04:34:28;31.83;;;17.90;;
26113;SDS011;13966;48.828;9.064;2023-03-01T04:36:54;31.60;;;18.52;;
26113;SDS011;13966;48.828;9.064;2023-03-01T04:39:20;29.63;;;18.30;;
26113;SDS011;13966;48.828;9.064;2023-03-01T04:41:46;35.75;;;18.42;;
26113;SDS011;13966;48.828;9.064;2023-03-01T04:44:12;30.20;;;18.27;;
26113;SDS011;13966;48.828;9.064;2023-03-01T04:46:38;31.92;;;18.58;;
26113;SDS011;13966;48.828;9.064;2023-03-01T04:49:04;33.10;;;18.48;;
26113;SDS011;13966;48.828;9.064;2023-03-01T04:51:31;29.17;;;17.85;;
26113;SDS011;13966;48.828;9.064;2023-03-01T04:53:57;30.63;;;18.10;;
26113;SDS011;13966;48.828;9.064;2023-03-01T04:56:23;32.33;;;19.13;;
26113;SDS011;13966;48.828;9.064;2023-03-01T04:58:49;31.38;;;17.90;;
26113;SDS011;13966;48.828;9.064;2023-03-01T05:01:18;32.28;;;18.85;;
26113;SDS011;13966;48.828;9.064;2023-03-01T05:03:45;35.35;;;19.15;;
26113;SDS011;13966;48.828;9.064;2023-03-01T05:06:11;30.33;;;18.50;;
26113;SDS011;13966;48.828;9.064;2023-03-01T05:08:38;32.67;;;18.85;;
26113;SDS011;13966;48.828;9.064;2023-03-01T05:11:04;29.98;;;18.00;;
26113;SDS011;13966;48.828;9.064;2023-03-01T05:13:33;37.00;;;18.38;;
26113;SDS011;13966;48.828;9.064;2023-03-01T05:16:00;28.75;;;18.27;;
26113;SDS011;13966;48.828;9.064;2023-03-01T05:18:27;33.28;;;18.27;;
26113;SDS011;13966;48.828;9.064;2023-03-01T05:20:55;29.33;;;18.10;;
26113;SDS011;13966;48.828;9.064;2023-03-01T05:23:23;30.83;;;17.40;;
26113;SDS011;13966;48.828;9.064;2023-03-01T05:25:49;30.25;;;19.15;;
26113;SDS011;13966;48.828;9.064;2023-03-01T05:28:17;30.63;;;18.50;;
26113;SDS011;13966;48.828;9.064;2023-03-01T05:30:44;35.17;;;19.73;;
26113;SDS011;13966;48.828;9.064;2023-03-01T05:33:10;33.33;;;18.88;;
26113;SDS011;13966;48.828;9.064;2023-03-01T05:35:38;33.90;;;19.35;;
26113;SDS011;13966;48.828;9.064;2023-03-01T05:38:06;35.72;;;19.15;;
26113;SDS011;13966;48.828;9.064;2023-03-01T05:40:32;30.60;;;18.25;;
26113;SDS011;13966;48.828;9.064;2023-03-01T05:42:59;29.92;;;18.08;;
26113;SDS011;13966;48.828;9.064;2023-03-01T05:45:26;31.83;;;18.50;;
26113;SDS011;13966;48.828;9.064;2023-03-01T05:47:52;30.08;;;17.90;;
26113;SDS011;13966;48.828;9.064;2023-03-01T05:50:21;29.80;;;17.92;;
26113;SDS011;13966;48.828;9.064;2023-03-01T05:52:48;31.00;;;18.92;;
26113;SDS011;13966;48.828;9.064;2023-03-01T05:55:18;31.05;;;18.52;;
26113;SDS011;13966;48.828;9.064;2023-03-01T05:57:45;31.30;;;19.20;;
26113;SDS011;13966;48.828;9.064;2023-03-01T06:00:11;30.55;;;18.95;;
26113;SDS011;13966;48.828;9.064;2023-03-01T06:02:38;30.90;;;17.88;;
26113;SDS011;13966;48.828;9.064;2023-03-01T06:05:04;31.17;;;18.33;;
26113;SDS011;13966;48.828;9.064;2023-03-01T06:07:31;33.38;;;18.95;;
26113;SDS011;13966;48.828;9.064;2023-03-01T06:09:57;30.05;;;18.48;;
26113;SDS011;13966;48.828;9.064;2023-03-01T06:12:23;30.65;;;18.63;;
26113;SDS011;13966;48.828;9.064;2023-03-01T06:14:49;30.42;;;18.90;;
26113;SDS011;13966;48.828;9.064;2023-03-01T06:17:15;37.00;;;20.40;;
26113;SDS011;13966;48.828;9.064;2023-03-01T06:19:41;31.33;;;19.20;;
26113;SDS011;13966;48.828;9.064;2023-03-01T06:22:07;32.33;;;18.98;;
26113;SDS011;13966;48.828;9.064;2023-03-01T06:24:33;41.33;;;19.17;;
26113;SDS011;13966;48.828;9.064;2023-03-01T06:26:59;32.42;;;18.80;;
26113;SDS011;13966;48.828;9.064;2023-03-01T06:29:25;31.55;;;19.73;;
26113;SDS011;13966;48.828;9.064;2023-03-01T06:31:52;32.45;;;19.05;;
26113;SDS011;13966;48.828;9.064;2023-03-01T06:34:18;30.00;;;18.25;;
26113;SDS011;13966;48.828;9.064;2023-03-01T06:36:46;30.40;;;19.48;;
26113;SDS011;13966;48.828;9.064;2023-03-01T06:39:12;35.15;;;20.58;;
26113;SDS011;13966;48.828;9.064;2023-03-01T06:41:38;31.08;;;19.45;;
26113;SDS011;13966;48.828;9.064;2023-03-01T06:44:04;34.10;;;18.95;;
26113;SDS011;13966;48.828;9.064;2023-03-01T06:46:30;31.77;;;18.73;;
26113;SDS011;13966;48.828;9.064;2023-03-01T06:48:56;34.28;;;20.35;;
26113;SDS011;13966;48.828;9.064;2023-03-01T06:51:22;37.58;;;20.90;;
26113;SDS011;13966;48.828;9.064;2023-03-01T06:53:49;36.45;;;20.48;;
26113;SDS011;13966;48.828;9.064;2023-03-01T06:56:15;34.85;;;19.70;;
26113;SDS011;13966;48.828;9.064;2023-03-01T06:58:41;35.55;;;20.20;;
26113;SDS011;13966;48.828;9.064;2023-03-01T07:01:07;32.88;;;20.02;;
26113;SDS011;13966;48.828;9.064;2023-03-01T07:03:33;37.03;;;20.38;;
26113;SDS011;13966;48.828;9.064;2023-03-01T07:05:59;34.10;;;19.63;;
26113;SDS011;13966;48.828;9.064;2023-03-01T07:08:26;38.72;;;20.45;;
26113;SDS011;13966;48.828;9.064;2023-03-01T07:10:55;35.63;;;20.30;;
26113;SDS011;13966;48.828;9.064;2023-03-01T07:13:22;32.92;;;19.95;;
26113;SDS011;13966;48.828;9.064;2023-03-01T07:15:48;38.63;;;19.98;;
26113;SDS011;13966;48.828;9.064;2023-03-01T07:18:14;36.22;;;20.17;;
26113;SDS011;13966;48.828;9.064;2023-03-01T07:20:40;34.25;;;20.05;;
26113;SDS011;13966;48.828;9.064;2023-03-01T07:23:06;34.00;;;19.77;;
26113;SDS011;13966;48.828;9.064;2023-03-01T07:25:32;35.13;;;20.85;;
26113;SDS011;13966;48.828;9.064;2023-03-01T07:27:58;34.95;;;19.83;;
26113;SDS011;13966;48.828;9.064;2023-03-01T07:30:24;34.38;;;19.98;;
26113;SDS011;13966;48.828;9.064;2023-03-01T07:32:53;37.20;;;20.63;;
26113;SDS011;13966;48.828;9.064;2023-03-01T07:35:19;34.97;;;20.90;;
26113;SDS011;13966;48.828;9.064;2023-03-01T07:37:45;32.97;;;20.83;;
26113;SDS011;13966;48.828;9.064;2023-03-01T07:40:11;37.90;;;20.98;;
26113;SDS011;13966;48.828;9.064;2023-03-01T07:42:37;35.97;;;21.00;;
26113;SDS011;13966;48.828;9.064;2023-03-01T07:45:04;38.90;;;21.35;;
26113;SDS011;13966;48.828;9.064;2023-03-01T07:47:30;37.13;;;21.48;;
26113;SDS011;13966;48.828;9.064;2023-03-01T07:49:56;37.13;;;20.35;;
26113;SDS011;13966;48.828;9.064;2023-03-01T07:52:22;52.58;;;23.15;;
26113;SDS011;13966;48.828;9.064;2023-03-01T07:54:48;39.75;;;22.13;;
26113;SDS011;13966;48.828;9.064;2023-03-01T07:57:14;38.58;;;20.25;;
26113;SDS011;13966;48.828;9.064;2023-03-01T07:59:40;36.38;;;21.08;;
26113;SDS011;13966;48.828;9.064;2023-03-01T08:02:07;39.15;;;21.45;;
26113;SDS011;13966;48.828;9.064;2023-03-01T08:04:33;36.80;;;21.17;;
26113;SDS011;13966;48.828;9.064;2023-03-01T08:06:59;37.60;;;20.77;;
26113;SDS011;13966;48.828;9.064;2023-03-01T08:09:26;38.88;;;21.60;;
26113;SDS011;13966;48.828;9.064;2023-03-01T08:11:52;42.40;;;21.23;;
26113;SDS011;13966;48.828;9.064;2023-03-01T08:14:19;38.42;;;20.70;;
26113;SDS011;13966;48.828;9.064;2023-03-01T08:16:45;34.72;;;21.52;;
26113;SDS011;13966;48.828;9.064;2023-03-01T08:19:14;33.13;;;19.98;;
26113;SDS011;13966;48.828;9.064;2023-03-01T08:21:40;37.40;;;21.15;;
26113;SDS011;13966;48.828;9.064;2023-03-01T08:24:06;37.05;;;21.60;;
26113;SDS011;13966;48.828;9.064;2023-03-01T08:26:33;35.92;;;20.65;;
26113;SDS011;13966;48.828;9.064;2023-03-01T08:28:59;35.20;;;20.10;;
26113;SDS011;13966;48.828;9.064;2023-03-01T08:31:35;32.70;;;20.63;;
26113;SDS011;13966;48.828;9.064;2023-03-01T08:34:02;40.00;;;20.88;;
26113;SDS011;13966;48.828;9.064;2023-03-01T08:36:30;32.13;;;19.63;;
26113;SDS011;13966;48.828;9.064;2023-03-01T08:38:56;40.47;;;21.20;;
26113;SDS011;13966;48.828;9.064;2023-03-01T08:41:22;34.83;;;21.08;;
26113;SDS011;13966;48.828;9.064;2023-03-01T08:43:48;38.70;;;21.30;;
26113;SDS011;13966;48.828;9.064;2023-03-01T08:46:15;36.25;;;19.42;;
26113;SDS011;13966;48.828;9.064;2023-03-01T08:48:41;33.97;;;20.60;;
26113;SDS011;13966;48.828;9.064;2023-03-01T08:51:14;34.65;;;20.77;;
26113;SDS011;13966;48.828;9.064;2023-03-01T08:53:40;32.58;;;20.73;;
26113;SDS011;13966;48.828;9.064;2023-03-01T08:56:07;34.53;;;19.88;;
26113;SDS011;13966;48.828;9.064;2023-03-01T08:58:33;33.80;;;20.42;;
26113;SDS011;13966;48.828;9.064;2023-03-01T09:00:59;41.60;;;20.02;;
26113;SDS011;13966;48.828;9.064;2023-03-01T09:03:25;30.65;;;19.27;;
26113;SDS011;13966;48.828;9.064;2023-03-01T09:05:52;33.75;;;19.80;;
26113;SDS011;13966;48.828;9.064;2023-03-01T09:08:18;35.85;;;20.85;;
26113;SDS011;13966;48.828;9.064;2023-03-01T09:10:45;34.20;;;20.08;;
26113;SDS011;13966;48.828;9.064;2023-03-01T09:13:11;32.13;;;19.42;;
26113;SDS011;13966;48.828;9.064;2023-03-01T09:15:37;31.05;;;18.92;;
26113;SDS011;13966;48.828;9.064;2023-03-01T09:18:03;32.95;;;21.13;;
26113;SDS011;13966;48.828;9.064;2023-03-01T09:20:30;30.92;;;20.13;;
26113;SDS011;13966;48.828;9.064;2023-03-01T09:22:57;33.60;;;20.45;;
26113;SDS011;13966;48.828;9.064;2023-03-01T09:25:23;34.67;;;21.25;;
26113;SDS011;13966;48.828;9.064;2023-03-01T09:27:53;32.88;;;19.77;;
26113;SDS011;13966;48.828;9.064;2023-03-01T09:30:19;32.80;;;20.10;;
26113;SDS011;13966;48.828;9.064;2023-03-01T09:32:45;38.72;;;20.73;;
26113;SDS011;13966;48.828;9.064;2023-03-01T09:35:11;32.05;;;20.00;;
26113;SDS011;13966;48.828;9.064;2023-03-01T09:37:37;30.83;;;20.02;;
26113;SDS011;13966;48.828;9.064;2023-03-01T09:40:05;30.60;;;19.55;;
26113;SDS011;13966;48.828;9.064;2023-03-01T09:42:32;31.70;;;20.02;;
26113;SDS011;13966;48.828;9.064;2023-03-01T09:45:00;32.47;;;19.92;;
26113;SDS011;13966;48.828;9.064;2023-03-01T09:47:28;30.95;;;19.60;;
26113;SDS011;13966;48.828;9.064;2023-03-01T09:52:29;32.03;;;20.70;;
26113;SDS011;13966;48.828;9.064;2023-03-01T09:54:58;30.27;;;20.08;;
26113;SDS011;13966;48.828;9.064;2023-03-01T10:00:00;28.55;;;19.15;;
26113;SDS011;13966;48.828;9.064;2023-03-01T10:04:58;35.92;;;20.17;;
26113;SDS011;13966;48.828;9.064;2023-03-01T10:07:32;32.25;;;20.58;;
26113;SDS011;13966;48.828;9.064;2023-03-01T10:10:04;32.15;;;20.05;;
26113;SDS011;13966;48.828;9.064;2023-03-01T10:12:32;30.27;;;19.60;;
26113;SDS011;13966;48.828;9.064;2023-03-01T10:22:41;31.33;;;19.35;;
26113;SDS011;13966;48.828;9.064;2023-03-01T10:25:12;27.75;;;18.92;;
26113;SDS011;13966;48.828;9.064;2023-03-01T10:27:54;41.25;;;20.45;;
26113;SDS011;13966;48.828;9.064;2023-03-01T10:30:29;29.60;;;19.13;;
26113;SDS011;13966;48.828;9.064;2023-03-01T10:32:58;30.85;;;19.55;;
26113;SDS011;13966;48.828;9.064;2023-03-01T10:35:28;30.17;;;19.20;;
26113;SDS011;13966;48.828;9.064;2023-03-01T10:38:08;28.95;;;19.40;;
26113;SDS011;13966;48.828;9.064;2023-03-01T10:40:35;32.65;;;19.88;;
26113;SDS011;13966;48.828;9.064;2023-03-01T10:43:03;30.10;;;20.40;;
26113;SDS011;13966;48.828;9.064;2023-03-01T10:48:17;27.50;;;18.73;;
26113;SDS011;13966;48.828;9.064;2023-03-01T10:50:42;27.90;;;18.60;;
26113;SDS011;13966;48.828;9.064;2023-03-01T10:53:22;31.42;;;18.98;;
26113;SDS011;13966;48.828;9.064;2023-03-01T10:55:56;26.35;;;17.95;;
26113;SDS011;13966;48.828;9.064;2023-03-01T10:58:23;27.77;;;18.02;;
26113;SDS011;13966;48.828;9.064;2023-03-01T11:00:50;29.48;;;18.63;;
26113;SDS011;13966;48.828;9.064;2023-03-01T11:05:57;22.70;;;17.13;;
26113;SDS011;13966;48.828;9.064;2023-03-01T11:08:43;25.73;;;16.67;;
26113;SDS011;13966;48.828;9.064;2023-03-01T11:13:45;21.20;;;16.02;;
26113;SDS011;13966;48.828;9.064;2023-03-01T11:16:15;21.98;;;16.15;;
26113;SDS011;13966;48.828;9.064;2023-03-01T11:18:55;23.40;;;15.85;;
26113;SDS011;13966;48.828;9.064;2023-03-01T11:21:21;23.30;;;16.23;;
26113;SDS011;13966;48.828;9.064;2023-03-01T11:23:47;27.50;;;15.55;;
26113;SDS011;13966;48.828;9.064;2023-03-01T11:26:13;24.67;;;15.07;;
26113;SDS011;13966;48.828;9.064;2023-03-01T11:28:41;21.08;;;15.35;;
26113;SDS011;13966;48.828;9.064;2023-03-01T11:31:08;22.27;;;15.48;;
26113;SDS011;13966;48.828;9.064;2023-03-01T11:33:41;19.67;;;14.85;;
26113;SDS011;13966;48.828;9.064;2023-03-01T11:38:37;20.52;;;14.45;;
26113;SDS011;13966;48.828;9.064;2023-03-01T11:43:48;21.58;;;15.35;;
26113;SDS011;13966;48.828;9.064;2023-03-01T11:51:13;17.60;;;12.45;;
26113;SDS011;13966;48.828;9.064;2023-03-01T11:53:48;18.85;;;13.45;;
26113;SDS011;13966;48.828;9.064;2023-03-01T11:56:28;16.02;;;12.32;;
26113;SDS011;13966;48.828;9.064;2023-03-01T12:01:25;16.63;;;13.10;;
26113;SDS011;13966;48.828;9.064;2023-03-01T12:16:40;12.13;;;10.57;;
26113;SDS011;13966;48.828;9.064;2023-03-01T12:40:28;11.68;;;10.45;;
26113;SDS011;13966;48.828;9.064;2023-03-01T12:50:53;11.52;;;9.82;;
26113;SDS011;13966;48.828;9.064;2023-03-01T12:55:45;13.65;;;9.85;;
26113;SDS011;13966;48.828;9.064;2023-03-01T13:08:39;12.60;;;9.90;;
26113;SDS011;13966;48.828;9.064;2023-03-01T13:11:11;11.98;;;10.70;;
26113;SDS011;13966;48.828;9.064;2023-03-01T13:13:40;9.40;;;8.30;;
26113;SDS011;13966;48.828;9.064;2023-03-01T13:16:20;11.20;;;10.02;;
26113;SDS011;13966;48.828;9.064;2023-03-01T13:18:47;13.55;;;10.15;;
26113;SDS011;13966;48.828;9.064;2023-03-01T13:21:13;12.05;;;10.32;;
26113;SDS011;13966;48.828;9.064;2023-03-01T13:23:54;12.10;;;10.77;;
26113;SDS011;13966;48.828;9.064;2023-03-01T13:26:20;11.70;;;9.90;;
26113;SDS011;13966;48.828;9.064;2023-03-01T13:33:51;12.15;;;10.00;;
26113;SDS011;13966;48.828;9.064;2023-03-01T13:39:01;10.85;;;9.73;;
26113;SDS011;13966;48.828;9.064;2023-03-01T13:46:38;11.82;;;10.27;;
26113;SDS011;13966;48.828;9.064;2023-03-01T13:49:04;10.27;;;9.25;;
26113;SDS011;13966;48.828;9.064;2023-03-01T13:51:30;10.27;;;9.00;;
26113;SDS011;13966;48.828;9.064;2023-03-01T13:53:56;12.38;;;10.25;;
26113;SDS011;13966;48.828;9.064;2023-03-01T13:56:24;11.75;;;9.77;;
26113;SDS011;13966;48.828;9.064;2023-03-01T13:58:52;11.23;;;9.70;;
26113;SDS011;13966;48.828;9.064;2023-03-01T14:01:36;10.93;;;9.88;;
26113;SDS011;13966;48.828;9.064;2023-03-01T14:04:03;14.43;;;9.90;;
26113;SDS011;13966;48.828;9.064;2023-03-01T14:06:40;12.93;;;9.88;;
26113;SDS011;13966;48.828;9.064;2023-03-01T14:09:20;12.60;;;9.93;;
26113;SDS011;13966;48.828;9.064;2023-03-01T14:14:44;13.30;;;10.27;;
26113;SDS011;13966;48.828;9.064;2023-03-01T14:19:54;18.10;;;10.75;;
26113;SDS011;13966;48.828;9.064;2023-03-01T14:22:24;13.63;;;11.05;;
26113;SDS011;13966;48.828;9.064;2023-03-01T14:25:02;13.65;;;11.00;;
26113;SDS011;13966;48.828;9.064;2023-03-01T14:27:33;13.23;;;10.70;;
26113;SDS011;13966;48.828;9.064;2023-03-01T14:30:02;14.20;;;11.48;;
26113;SDS011;13966;48.828;9.064;2023-03-01T14:32:29;12.52;;;11.23;;
26113;SDS011;13966;48.828;9.064;2023-03-01T14:34:56;12.50;;;11.10;;
26113;SDS011;13966;48.828;9.064;2023-03-01T14:37:27;13.15;;;11.75;;
26113;SDS011;13966;48.828;9.064;2023-03-01T14:39:54;14.85;;;11.32;;
26113;SDS011;13966;48.828;9.064;2023-03-01T14:42:21;13.77;;;12.35;;
26113;SDS011;13966;48.828;9.064;2023-03-01T14:44:49;14.75;;;12.57;;
26113;SDS011;13966;48.828;9.064;2023-03-01T14:47:20;16.23;;;12.88;;
26113;SDS011;13966;48.828;9.064;2023-03-01T14:49:49;16.02;;;13.07;;
26113;SDS011;13966;48.828;9.064;2023-03-01T14:52:18;16.83;;;13.07;;
26113;SDS011;13966;48.828;9.064;2023-03-01T14:54:46;17.95;;;13.00;;
26113;SDS011;13966;48.828;9.064;2023-03-01T14:57:18;14.15;;;12.55;;
26113;SDS011;13966;48.828;9.064;2023-03-01T14:59:46;13.70;;;12.30;;
26113;SDS011;13966;48.828;9.064;2023-03-01T15:02:13;15.75;;;13.57;;
26113;SDS011;13966;48.828;9.064;2023-03-01T15:04:42;15.77;;;13.23;;
26113;SDS011;13966;48.828;9.064;2023-03-01T15:07:09;20.17;;;13.40;;
26113;SDS011;13966;48.828;9.064;2023-03-01T15:09:39;17.42;;;13.23;;
26113;SDS011;13966;48.828;9.064;2023-03-01T15:14:50;17.20;;;14.70;;
26113;SDS011;13966;48.828;9.064;2023-03-01T15:19:46;19.27;;;15.68;;
26113;SDS011;13966;48.828;9.064;2023-03-01T15:22:15;21.63;;;15.65;;
26113;SDS011;13966;48.828;9.064;2023-03-01T15:24:46;20.38;;;15.95;;
26113;SDS011;13966;48.828;9.064;2023-03-01T15:27:14;22.55;;;16.23;;
26113;SDS011;13966;48.828;9.064;2023-03-01T15:29:41;20.73;;;15.80;;
26113;SDS011;13966;48.828;9.064;2023-03-01T15:34:51;29.33;;;16.63;;
26113;SDS011;13966;48.828;9.064;2023-03-01T15:40:02;25.52;;;15.65;;
26113;SDS011;13966;48.828;9.064;2023-03-01T15:45:19;22.02;;;16.27;;
26113;SDS011;13966;48.828;9.064;2023-03-01T15:47:52;22.63;;;15.82;;
26113;SDS011;13966;48.828;9.064;2023-03-01T15:50:23;25.98;;;16.67;;
26113;SDS011;13966;48.828;9.064;2023-03-01T15:52:49;25.88;;;16.40;;
26113;SDS011;13966;48.828;9.064;2023-03-01T15:55:17;24.10;;;16.25;;
26113;SDS011;13966;48.828;9.064;2023-03-01T15:57:43;32.55;;;17.33;;
26113;SDS011;13966;48.828;9.064;2023-03-01T16:00:10;25.52;;;16.33;;
26113;SDS011;13966;48.828;9.064;2023-03-01T16:02:36;24.67;;;16.88;;
26113;SDS011;13966;48.828;9.064;2023-03-01T16:05:03;22.90;;;16.90;;
26113;SDS011;13966;48.828;9.064;2023-03-01T16:07:29;25.27;;;17.08;;
26113;SDS011;13966;48.828;9.064;2023-03-01T16:09:56;28.58;;;16.65;;
26113;SDS011;13966;48.828;9.064;2023-03-01T16:12:22;28.20;;;17.77;;
26113;SDS011;13966;48.828;9.064;2023-03-01T16:14:49;26.65;;;17.17;;
26113;SDS011;13966;48.828;9.064;2023-03-01T16:17:15;25.17;;;17.02;;
26113;SDS011;13966;48.828;9.064;2023-03-01T16:19:41;29.00;;;17.58;;
26113;SDS011;13966;48.828;9.064;2023-03-01T16:22:10;27.77;;;17.30;;
26113;SDS011;13966;48.828;9.064;2023-03-01T16:24:36;28.13;;;19.35;;
26113;SDS011;13966;48.828;9.064;2023-03-01T16:27:03;25.95;;;16.85;;
26113;SDS011;13966;48.828;9.064;2023-03-01T16:29:29;26.58;;;17.52;;
26113;SDS011;13966;48.828;9.064;2023-03-01T16:31:55;28.77;;;16.85;;
26113;SDS011;13966;48.828;9.064;2023-03-01T16:34:21;27.40;;;17.77;;
26113;SDS011;13966;48.828;9.064;2023-03-01T16:36:48;25.23;;;16.60;;